Pearl Of Scandinavia — OWFU2 — position and weather

sailwx.info

Track history (hours):
 
Tides and Currents Weather Stations Pressure Air Temp Water Temp Dewpoint Dewpoint Depression Visibility Wind Speed Wind Dir Waves Ship Positions

Pearl Of Scandinavia

Last reported at 2016-Jun-29 19:33 UTC. Time now 2016-Jun-29 20:13 UTC.
Position N 56°49' E 011°55'.

Length 176.4 m; beam 34 m; draft 6.215 m.

Type: Ship. MMSI: 219945000.

Date/timePositionNaut miles runAvg speedWind from/ knotsBaromVisibWave heightAir tempDewpointWater temp
2016-Jun-29 19:33N 56°49' E 011°55'1616.5
2016-Jun-29 18:33N 56°35' E 012°10'2216.5
2016-Jun-29 17:14N 56°15' E 012°26'1116.3
2016-Jun-29 16:33N 56°06' E 012°36'1616.1
2016-Jun-29 15:33N 55°50' E 012°44'9 9.2
2016-Jun-29 14:33N 55°42' E 012°36'0 0.0
2016-Jun-29 13:31N 55°42' E 012°36'0 0.0
2016-Jun-29 12:31N 55°42' E 012°36'0 0.0
2016-Jun-29 11:31N 55°42' E 012°36'0 0.0
2016-Jun-29 10:31N 55°42' E 012°36'0 0.0
2016-Jun-29 09:31N 55°42' E 012°36'0 0.0
2016-Jun-29 08:31N 55°42' E 012°36'0 0.2
2016-Jun-29 07:33N 55°42' E 012°36'1111.4
2016-Jun-29 06:34N 55°54' E 012°40'1514.7
2016-Jun-29 05:34N 56°07' E 012°31'1716.5
2016-Jun-29 04:33N 56°23' E 012°21'1717.0
2016-Jun-29 03:34N 56°39' E 012°14'1717.0
2016-Jun-29 02:34N 56°56' E 012°07'1716.9
2016-Jun-29 01:34N 57°12' E 011°54'1817.6
2016-Jun-29 00:34N 57°26' E 011°35'1716.8
2016-Jun-28 23:34N 57°41' E 011°22'1717.0
2016-Jun-28 22:34N 57°57' E 011°12'1616.1
2016-Jun-28 21:33N 58°13' E 011°03'1515.4
2016-Jun-28 20:34N 58°27' E 010°54'1515.4
2016-Jun-28 19:34N 58°42' E 010°47'1615.8
2016-Jun-28 18:33N 58°58' E 010°42'1616.4
2016-Jun-28 17:34N 59°14' E 010°37'1616.3
2016-Jun-28 16:33N 59°30' E 010°35'1513.8
2016-Jun-28 15:28N 59°45' E 010°33'9 1.1
2016-Jun-28 07:21N 59°54' E 010°41'1214.7
2016-Jun-28 06:33N 59°42' E 010°36'3216.2
2016-Jun-28 04:33N 59°10' E 010°39'1717.2
2016-Jun-28 03:33N 58°53' E 010°37'1717.2
2016-Jun-28 02:33N 58°36' E 010°36'1616.3
2016-Jun-28 01:33N 58°20' E 010°44'1616.3
2016-Jun-28 00:34N 58°04' E 010°55'1616.0
2016-Jun-27 23:34N 57°49' E 011°04'1515.1
2016-Jun-27 22:34N 57°35' E 011°14'1515.3
2016-Jun-27 21:33N 57°23' E 011°30'1716.9
2016-Jun-27 20:33N 57°07' E 011°41'1716.6
2016-Jun-27 19:33N 56°51' E 011°52'1716.5
2016-Jun-27 18:34N 56°37' E 012°08'2416.4
2016-Jun-27 17:06N 56°15' E 012°26'916.5
2016-Jun-27 16:33N 56°07' E 012°33'1616.3
2016-Jun-27 15:33N 55°52' E 012°45'1111.4
2016-Jun-27 14:33N 55°42' E 012°36'0 0.0
2016-Jun-27 13:33N 55°42' E 012°36'0 0.0
2016-Jun-27 12:33N 55°42' E 012°36'0 0.0
2016-Jun-27 11:33N 55°42' E 012°36'0 0.0
2016-Jun-27 10:33N 55°42' E 012°36'0 0.0
2016-Jun-27 09:33N 55°42' E 012°36'0 0.0
2016-Jun-27 08:33N 55°42' E 012°36'0 0.3
2016-Jun-27 07:34N 55°42' E 012°36'1211.5
2016-Jun-27 06:33N 55°54' E 012°40'1514.6
2016-Jun-27 05:34N 56°07' E 012°31'2416.1
2016-Jun-27 04:06N 56°30' E 012°18'916.7
2016-Jun-27 03:33N 56°39' E 012°14'1716.5
2016-Jun-27 02:33N 56°54' E 012°06'1616.2
2016-Jun-27 01:34N 57°10' E 011°56'1616.5
2016-Jun-27 00:34N 57°24' E 011°40'1717.3
2016-Jun-26 23:34N 57°39' E 011°24'1716.8
2016-Jun-26 22:33N 57°55' E 011°14'1616.3
2016-Jun-26 21:34N 58°10' E 011°05'1615.8
2016-Jun-26 20:34N 58°25' E 010°57'1615.7
2016-Jun-26 19:34N 58°40' E 010°48'1615.7
2016-Jun-26 18:34N 58°56' E 010°42'1615.9
2016-Jun-26 17:34N 59°11' E 010°38'1615.9
2016-Jun-26 16:34N 59°27' E 010°33'1414.2
2016-Jun-26 15:34N 59°41' E 010°36'13 1.5
2016-Jun-26 07:27N 59°54' E 010°41'1212.9
2016-Jun-26 06:31N 59°42' E 010°36'1313.9
2016-Jun-26 05:33N 59°29' E 010°35'1616.5
2016-Jun-26 04:33N 59°12' E 010°39'1616.2
2016-Jun-26 03:33N 58°56' E 010°42'1616.2
2016-Jun-26 02:33N 58°40' E 010°46'1616.4
2016-Jun-26 01:33N 58°25' E 010°56'1616.5
2016-Jun-26 00:33N 58°09' E 011°05'1716.9
2016-Jun-25 23:33N 57°53' E 011°15'1716.5
2016-Jun-25 22:33N 57°37' E 011°24'1616.1
2016-Jun-25 21:33N 57°22' E 011°33'1615.9
2016-Jun-25 20:33N 57°06' E 011°41'1615.9
2016-Jun-25 19:33N 56°51' E 011°52'1616.0
2016-Jun-25 18:33N 56°38' E 012°07'3316.2
2016-Jun-25 16:33N 56°08' E 012°32'1615.8
2016-Jun-25 15:33N 55°54' E 012°44'1312.9
2016-Jun-25 14:34N 55°42' E 012°36'0 0.2
2016-Jun-25 13:33N 55°42' E 012°36'0 0.0
2016-Jun-25 12:33N 55°42' E 012°36'0 0.0
2016-Jun-25 11:33N 55°42' E 012°36'0 0.0
2016-Jun-25 10:33N 55°42' E 012°36'0 0.0
2016-Jun-25 09:33N 55°42' E 012°36'0 0.0
2016-Jun-25 08:33N 55°42' E 012°36'0 0.2
2016-Jun-25 07:33N 55°42' E 012°36'1111.4
2016-Jun-25 06:33N 55°54' E 012°40'1413.9
2016-Jun-25 05:33N 56°07' E 012°32'2015.6
2016-Jun-25 04:16N 56°26' E 012°20'1216.5
2016-Jun-25 03:33N 56°37' E 012°15'1716.8
2016-Jun-25 02:33N 56°54' E 012°08'1616.2
2016-Jun-25 01:33N 57°09' E 011°56'1616.2
2016-Jun-25 00:33N 57°23' E 011°43'1717.0
2016-Jun-24 23:34N 57°38' E 011°28'1717.3
2016-Jun-24 22:33N 57°54' E 011°14'1616.6
2016-Jun-24 21:33N 58°10' E 011°06'1616.4
2016-Jun-24 20:33N 58°25' E 010°57'1616.2
2016-Jun-24 19:33N 58°41' E 010°48'1616.1
2016-Jun-24 18:33N 58°57' E 010°43'1616.1
2016-Jun-24 17:33N 59°13' E 010°37'1616.0
2016-Jun-24 16:33N 59°28' E 010°34'1413.7
2016-Jun-24 15:33N 59°42' E 010°35'12 1.4
2016-Jun-24 07:22N 59°54' E 010°41'4214.8
2016-Jun-24 04:33N 59°12' E 010°39'1615.9
2016-Jun-24 03:33N 58°56' E 010°42'1616.4
2016-Jun-24 02:33N 58°40' E 010°46'1616.2
2016-Jun-24 01:34N 58°25' E 010°56'1615.7
2016-Jun-24 00:34N 58°10' E 011°05'1716.8
2016-Jun-23 23:33N 57°54' E 011°14'1616.4
2016-Jun-23 22:33N 57°38' E 011°23'1616.2
2016-Jun-23 21:33N 57°22' E 011°32'1616.2
2016-Jun-23 20:33N 57°07' E 011°41'1515.4
2016-Jun-23 19:33N 56°53' E 011°51'1515.4
2016-Jun-23 18:33N 56°39' E 012°06'3115.7
2016-Jun-23 16:33N 56°11' E 012°30'1616.4
2016-Jun-23 15:33N 55°56' E 012°43'1414.2
2016-Jun-23 14:33N 55°43' E 012°37'1 0.9
2016-Jun-23 13:32N 55°42' E 012°36'0 0.0
2016-Jun-23 12:32N 55°42' E 012°36'0 0.0
2016-Jun-23 11:32N 55°42' E 012°36'0 0.0
2016-Jun-23 10:32N 55°42' E 012°36'0 0.0
2016-Jun-23 09:32N 55°42' E 012°36'0 0.0
2016-Jun-23 08:32N 55°42' E 012°36'0 0.3
2016-Jun-23 07:32N 55°42' E 012°36'2512.6
2016-Jun-23 05:33N 56°07' E 012°31'1816.0
2016-Jun-23 04:24N 56°24' E 012°20'1517.1
2016-Jun-23 03:33N 56°39' E 012°14'1717.0
2016-Jun-23 02:33N 56°55' E 012°06'1616.5
2016-Jun-23 01:33N 57°10' E 011°55'1716.8
2016-Jun-23 00:33N 57°25' E 011°40'1817.7
2016-Jun-22 23:34N 57°40' E 011°24'1817.6
2016-Jun-22 22:34N 57°57' E 011°13'1616.5
2016-Jun-22 21:34N 58°13' E 011°04'1616.3
2016-Jun-22 20:34N 58°28' E 010°55'1515.3
2016-Jun-22 19:34N 58°43' E 010°47'1616.1
2016-Jun-22 18:33N 58°59' E 010°42'1616.5
2016-Jun-22 17:33N 59°15' E 010°37'1616.1
2016-Jun-22 16:33N 59°31' E 010°35'1413.7
2016-Jun-22 15:33N 59°45' E 010°33'9 1.1
2016-Jun-22 07:18N 59°54' E 010°41'1013.9
2016-Jun-22 06:33N 59°44' E 010°35'1514.6
2016-Jun-22 05:33N 59°29' E 010°35'1616.0
2016-Jun-22 04:33N 59°13' E 010°38'1616.1
2016-Jun-22 03:33N 58°57' E 010°37'1616.4
2016-Jun-22 02:33N 58°41' E 010°33'1616.4
2016-Jun-22 01:33N 58°25' E 010°40'1717.0
2016-Jun-22 00:33N 58°09' E 010°51'1717.4
2016-Jun-21 23:33N 57°52' E 011°02'1717.1
2016-Jun-21 22:33N 57°37' E 011°15'1717.1
2016-Jun-21 21:33N 57°22' E 011°30'1717.3
2016-Jun-21 20:33N 57°06' E 011°42'1716.9
2016-Jun-21 19:32N 56°50' E 011°54'1616.6
2016-Jun-21 18:33N 56°36' E 012°10'1716.8
2016-Jun-21 17:33N 56°21' E 012°22'1616.2
2016-Jun-21 16:33N 56°06' E 012°35'1515.5
2016-Jun-21 15:33N 55°52' E 012°45'1110.6
2016-Jun-21 14:33N 55°42' E 012°36'0 0.0
2016-Jun-21 13:33N 55°42' E 012°36'0 0.0
2016-Jun-21 12:33N 55°42' E 012°36'0 0.0
2016-Jun-21 11:33N 55°42' E 012°36'0 0.0
2016-Jun-21 10:33N 55°42' E 012°36'0 0.0
2016-Jun-21 09:33N 55°42' E 012°36'0 0.0
2016-Jun-21 08:33N 55°42' E 012°36'0 0.3
2016-Jun-21 07:34N 55°42' E 012°36'2311.7
2016-Jun-21 05:33N 56°06' E 012°34'3417.1
2016-Jun-21 03:33N 56°38' E 012°12'1818.3
2016-Jun-21 02:33N 56°55' E 012°02'1817.7
2016-Jun-21 01:33N 57°12' E 011°52'1717.2
2016-Jun-21 00:33N 57°27' E 011°37'1716.7
2016-Jun-20 23:33N 57°42' E 011°22'1716.7
2016-Jun-20 22:33N 57°58' E 011°12'1615.7
2016-Jun-20 21:33N 58°13' E 011°04'1515.1
2016-Jun-20 20:33N 58°27' E 010°56'1515.1
2016-Jun-20 19:33N 58°42' E 010°48'1514.7
2016-Jun-20 18:33N 58°56' E 010°43'1514.6
2016-Jun-20 17:33N 59°10' E 010°38'1514.8
2016-Jun-20 16:33N 59°25' E 010°33'1514.8
2016-Jun-20 15:33N 59°40' E 010°37'14 1.7
2016-Jun-20 07:21N 59°53' E 010°41'1013.1
2016-Jun-20 06:34N 59°44' E 010°35'1413.8
2016-Jun-20 05:33N 59°30' E 010°35'1616.3
2016-Jun-20 04:33N 59°13' E 010°38'1716.6
2016-Jun-20 03:34N 58°57' E 010°42'1616.4
2016-Jun-20 02:34N 58°41' E 010°46'1717.3
2016-Jun-20 01:34N 58°24' E 010°56'1716.9
2016-Jun-20 00:34N 58°08' E 011°06'1716.8
2016-Jun-19 23:34N 57°52' E 011°16'1716.7
2016-Jun-19 22:34N 57°36' E 011°25'1716.8
2016-Jun-19 21:34N 57°20' E 011°34'1716.6
2016-Jun-19 20:34N 57°04' E 011°43'  
Track history (hours):
 
Tides and Currents Weather Stations Pressure Air Temp Water Temp Dewpoint Dewpoint Depression Visibility Wind Speed Wind Dir Waves Ship Positions

Pearl Of Scandinavia

Last reported at 2016-Jun-29 19:33 UTC. Time now 2016-Jun-29 20:13 UTC.
Position N 56°49' E 011°55'.

Length 176.4 m; beam 34 m; draft 6.215 m.

Type: Ship. MMSI: 219945000.

Date/timePositionNaut miles runAvg speedWind from/ knotsBaromVisibWave heightAir tempDewpointWater temp
2016-Jun-29 19:33N 56°49' E 011°55'1616.5
2016-Jun-29 18:33N 56°35' E 012°10'2216.5
2016-Jun-29 17:14N 56°15' E 012°26'1116.3
2016-Jun-29 16:33N 56°06' E 012°36'1616.1
2016-Jun-29 15:33N 55°50' E 012°44'9 9.2
2016-Jun-29 14:33N 55°42' E 012°36'0 0.0
2016-Jun-29 13:31N 55°42' E 012°36'0 0.0
2016-Jun-29 12:31N 55°42' E 012°36'0 0.0
2016-Jun-29 11:31N 55°42' E 012°36'0 0.0
2016-Jun-29 10:31N 55°42' E 012°36'0 0.0
2016-Jun-29 09:31N 55°42' E 012°36'0 0.0
2016-Jun-29 08:31N 55°42' E 012°36'0 0.2
2016-Jun-29 07:33N 55°42' E 012°36'1111.4
2016-Jun-29 06:34N 55°54' E 012°40'1514.7
2016-Jun-29 05:34N 56°07' E 012°31'1716.5
2016-Jun-29 04:33N 56°23' E 012°21'1717.0
2016-Jun-29 03:34N 56°39' E 012°14'1717.0
2016-Jun-29 02:34N 56°56' E 012°07'1716.9
2016-Jun-29 01:34N 57°12' E 011°54'1817.6
2016-Jun-29 00:34N 57°26' E 011°35'1716.8
2016-Jun-28 23:34N 57°41' E 011°22'1717.0
2016-Jun-28 22:34N 57°57' E 011°12'1616.1
2016-Jun-28 21:33N 58°13' E 011°03'1515.4
2016-Jun-28 20:34N 58°27' E 010°54'1515.4
2016-Jun-28 19:34N 58°42' E 010°47'1615.8
2016-Jun-28 18:33N 58°58' E 010°42'1616.4
2016-Jun-28 17:34N 59°14' E 010°37'1616.3
2016-Jun-28 16:33N 59°30' E 010°35'1513.8
2016-Jun-28 15:28N 59°45' E 010°33'9 1.1
2016-Jun-28 07:21N 59°54' E 010°41'1214.7
2016-Jun-28 06:33N 59°42' E 010°36'3216.2
2016-Jun-28 04:33N 59°10' E 010°39'1717.2
2016-Jun-28 03:33N 58°53' E 010°37'1717.2
2016-Jun-28 02:33N 58°36' E 010°36'1616.3
2016-Jun-28 01:33N 58°20' E 010°44'1616.3
2016-Jun-28 00:34N 58°04' E 010°55'1616.0
2016-Jun-27 23:34N 57°49' E 011°04'1515.1
2016-Jun-27 22:34N 57°35' E 011°14'1515.3
2016-Jun-27 21:33N 57°23' E 011°30'1716.9
2016-Jun-27 20:33N 57°07' E 011°41'1716.6
2016-Jun-27 19:33N 56°51' E 011°52'1716.5
2016-Jun-27 18:34N 56°37' E 012°08'2416.4
2016-Jun-27 17:06N 56°15' E 012°26'916.5
2016-Jun-27 16:33N 56°07' E 012°33'1616.3
2016-Jun-27 15:33N 55°52' E 012°45'1111.4
2016-Jun-27 14:33N 55°42' E 012°36'0 0.0
2016-Jun-27 13:33N 55°42' E 012°36'0 0.0
2016-Jun-27 12:33N 55°42' E 012°36'0 0.0
2016-Jun-27 11:33N 55°42' E 012°36'0 0.0
2016-Jun-27 10:33N 55°42' E 012°36'0 0.0
2016-Jun-27 09:33N 55°42' E 012°36'0 0.0
2016-Jun-27 08:33N 55°42' E 012°36'0 0.3
2016-Jun-27 07:34N 55°42' E 012°36'1211.5
2016-Jun-27 06:33N 55°54' E 012°40'1514.6
2016-Jun-27 05:34N 56°07' E 012°31'2416.1
2016-Jun-27 04:06N 56°30' E 012°18'916.7
2016-Jun-27 03:33N 56°39' E 012°14'1716.5
2016-Jun-27 02:33N 56°54' E 012°06'1616.2
2016-Jun-27 01:34N 57°10' E 011°56'1616.5
2016-Jun-27 00:34N 57°24' E 011°40'1717.3
2016-Jun-26 23:34N 57°39' E 011°24'1716.8
2016-Jun-26 22:33N 57°55' E 011°14'1616.3
2016-Jun-26 21:34N 58°10' E 011°05'1615.8
2016-Jun-26 20:34N 58°25' E 010°57'1615.7
2016-Jun-26 19:34N 58°40' E 010°48'1615.7
2016-Jun-26 18:34N 58°56' E 010°42'1615.9
2016-Jun-26 17:34N 59°11' E 010°38'1615.9
2016-Jun-26 16:34N 59°27' E 010°33'1414.2
2016-Jun-26 15:34N 59°41' E 010°36'13 1.5
2016-Jun-26 07:27N 59°54' E 010°41'1212.9
2016-Jun-26 06:31N 59°42' E 010°36'1313.9
2016-Jun-26 05:33N 59°29' E 010°35'1616.5
2016-Jun-26 04:33N 59°12' E 010°39'1616.2
2016-Jun-26 03:33N 58°56' E 010°42'1616.2
2016-Jun-26 02:33N 58°40' E 010°46'1616.4
2016-Jun-26 01:33N 58°25' E 010°56'1616.5
2016-Jun-26 00:33N 58°09' E 011°05'1716.9
2016-Jun-25 23:33N 57°53' E 011°15'1716.5
2016-Jun-25 22:33N 57°37' E 011°24'1616.1
2016-Jun-25 21:33N 57°22' E 011°33'1615.9
2016-Jun-25 20:33N 57°06' E 011°41'1615.9
2016-Jun-25 19:33N 56°51' E 011°52'1616.0
2016-Jun-25 18:33N 56°38' E 012°07'3316.2
2016-Jun-25 16:33N 56°08' E 012°32'1615.8
2016-Jun-25 15:33N 55°54' E 012°44'1312.9
2016-Jun-25 14:34N 55°42' E 012°36'0 0.2
2016-Jun-25 13:33N 55°42' E 012°36'0 0.0
2016-Jun-25 12:33N 55°42' E 012°36'0 0.0
2016-Jun-25 11:33N 55°42' E 012°36'0 0.0
2016-Jun-25 10:33N 55°42' E 012°36'0 0.0
2016-Jun-25 09:33N 55°42' E 012°36'0 0.0
2016-Jun-25 08:33N 55°42' E 012°36'0 0.2
2016-Jun-25 07:33N 55°42' E 012°36'1111.4
2016-Jun-25 06:33N 55°54' E 012°40'1413.9
2016-Jun-25 05:33N 56°07' E 012°32'2015.6
2016-Jun-25 04:16N 56°26' E 012°20'1216.5
2016-Jun-25 03:33N 56°37' E 012°15'1716.8
2016-Jun-25 02:33N 56°54' E 012°08'1616.2
2016-Jun-25 01:33N 57°09' E 011°56'1616.2
2016-Jun-25 00:33N 57°23' E 011°43'1717.0
2016-Jun-24 23:34N 57°38' E 011°28'1717.3
2016-Jun-24 22:33N 57°54' E 011°14'1616.6
2016-Jun-24 21:33N 58°10' E 011°06'1616.4
2016-Jun-24 20:33N 58°25' E 010°57'1616.2
2016-Jun-24 19:33N 58°41' E 010°48'1616.1
2016-Jun-24 18:33N 58°57' E 010°43'1616.1
2016-Jun-24 17:33N 59°13' E 010°37'1616.0
2016-Jun-24 16:33N 59°28' E 010°34'1413.7
2016-Jun-24 15:33N 59°42' E 010°35'12 1.4
2016-Jun-24 07:22N 59°54' E 010°41'4214.8
2016-Jun-24 04:33N 59°12' E 010°39'1615.9
2016-Jun-24 03:33N 58°56' E 010°42'1616.4
2016-Jun-24 02:33N 58°40' E 010°46'1616.2
2016-Jun-24 01:34N 58°25' E 010°56'1615.7
2016-Jun-24 00:34N 58°10' E 011°05'1716.8
2016-Jun-23 23:33N 57°54' E 011°14'1616.4
2016-Jun-23 22:33N 57°38' E 011°23'1616.2
2016-Jun-23 21:33N 57°22' E 011°32'1616.2
2016-Jun-23 20:33N 57°07' E 011°41'1515.4
2016-Jun-23 19:33N 56°53' E 011°51'1515.4
2016-Jun-23 18:33N 56°39' E 012°06'3115.7
2016-Jun-23 16:33N 56°11' E 012°30'1616.4
2016-Jun-23 15:33N 55°56' E 012°43'1414.2
2016-Jun-23 14:33N 55°43' E 012°37'1 0.9
2016-Jun-23 13:32N 55°42' E 012°36'0 0.0
2016-Jun-23 12:32N 55°42' E 012°36'0 0.0
2016-Jun-23 11:32N 55°42' E 012°36'0 0.0
2016-Jun-23 10:32N 55°42' E 012°36'0 0.0
2016-Jun-23 09:32N 55°42' E 012°36'0 0.0
2016-Jun-23 08:32N 55°42' E 012°36'0 0.3
2016-Jun-23 07:32N 55°42' E 012°36'2512.6
2016-Jun-23 05:33N 56°07' E 012°31'1816.0
2016-Jun-23 04:24N 56°24' E 012°20'1517.1
2016-Jun-23 03:33N 56°39' E 012°14'1717.0
2016-Jun-23 02:33N 56°55' E 012°06'1616.5
2016-Jun-23 01:33N 57°10' E 011°55'1716.8
2016-Jun-23 00:33N 57°25' E 011°40'1817.7
2016-Jun-22 23:34N 57°40' E 011°24'1817.6
2016-Jun-22 22:34N 57°57' E 011°13'1616.5
2016-Jun-22 21:34N 58°13' E 011°04'1616.3
2016-Jun-22 20:34N 58°28' E 010°55'1515.3
2016-Jun-22 19:34N 58°43' E 010°47'1616.1
2016-Jun-22 18:33N 58°59' E 010°42'1616.5
2016-Jun-22 17:33N 59°15' E 010°37'1616.1
2016-Jun-22 16:33N 59°31' E 010°35'1413.7
2016-Jun-22 15:33N 59°45' E 010°33'9 1.1
2016-Jun-22 07:18N 59°54' E 010°41'1013.9
2016-Jun-22 06:33N 59°44' E 010°35'1514.6
2016-Jun-22 05:33N 59°29' E 010°35'1616.0
2016-Jun-22 04:33N 59°13' E 010°38'1616.1
2016-Jun-22 03:33N 58°57' E 010°37'1616.4
2016-Jun-22 02:33N 58°41' E 010°33'1616.4
2016-Jun-22 01:33N 58°25' E 010°40'1717.0
2016-Jun-22 00:33N 58°09' E 010°51'1717.4
2016-Jun-21 23:33N 57°52' E 011°02'1717.1
2016-Jun-21 22:33N 57°37' E 011°15'1717.1
2016-Jun-21 21:33N 57°22' E 011°30'1717.3
2016-Jun-21 20:33N 57°06' E 011°42'1716.9
2016-Jun-21 19:32N 56°50' E 011°54'1616.6
2016-Jun-21 18:33N 56°36' E 012°10'1716.8
2016-Jun-21 17:33N 56°21' E 012°22'1616.2
2016-Jun-21 16:33N 56°06' E 012°35'1515.5
2016-Jun-21 15:33N 55°52' E 012°45'1110.6
2016-Jun-21 14:33N 55°42' E 012°36'0 0.0
2016-Jun-21 13:33N 55°42' E 012°36'0 0.0
2016-Jun-21 12:33N 55°42' E 012°36'0 0.0
2016-Jun-21 11:33N 55°42' E 012°36'0 0.0
2016-Jun-21 10:33N 55°42' E 012°36'0 0.0
2016-Jun-21 09:33N 55°42' E 012°36'0 0.0
2016-Jun-21 08:33N 55°42' E 012°36'0 0.3
2016-Jun-21 07:34N 55°42' E 012°36'2311.7
2016-Jun-21 05:33N 56°06' E 012°34'3417.1
2016-Jun-21 03:33N 56°38' E 012°12'1818.3
2016-Jun-21 02:33N 56°55' E 012°02'1817.7
2016-Jun-21 01:33N 57°12' E 011°52'1717.2
2016-Jun-21 00:33N 57°27' E 011°37'1716.7
2016-Jun-20 23:33N 57°42' E 011°22'1716.7
2016-Jun-20 22:33N 57°58' E 011°12'1615.7
2016-Jun-20 21:33N 58°13' E 011°04'1515.1
2016-Jun-20 20:33N 58°27' E 010°56'1515.1
2016-Jun-20 19:33N 58°42' E 010°48'1514.7
2016-Jun-20 18:33N 58°56' E 010°43'1514.6
2016-Jun-20 17:33N 59°10' E 010°38'1514.8
2016-Jun-20 16:33N 59°25' E 010°33'1514.8
2016-Jun-20 15:33N 59°40' E 010°37'14 1.7
2016-Jun-20 07:21N 59°53' E 010°41'1013.1
2016-Jun-20 06:34N 59°44' E 010°35'1413.8
2016-Jun-20 05:33N 59°30' E 010°35'1616.3
2016-Jun-20 04:33N 59°13' E 010°38'1716.6
2016-Jun-20 03:34N 58°57' E 010°42'1616.4
2016-Jun-20 02:34N 58°41' E 010°46'1717.3
2016-Jun-20 01:34N 58°24' E 010°56'1716.9
2016-Jun-20 00:34N 58°08' E 011°06'1716.8
2016-Jun-19 23:34N 57°52' E 011°16'1716.7
2016-Jun-19 22:34N 57°36' E 011°25'1716.8
2016-Jun-19 21:34N 57°20' E 011°34'1716.6
2016-Jun-19 20:34N 57°04' E 011°43'  

Dump ship's entire track history